createdAt,value
2018-08-11T00:01:35.179Z,10.70
2018-08-11T00:04:03.125Z,10.70
2018-08-11T00:06:31.376Z,10.70
2018-08-11T00:08:59.196Z,10.70
2018-08-11T00:11:27.267Z,10.80
2018-08-11T00:13:55.362Z,10.90
2018-08-11T00:16:23.354Z,11.00
2018-08-11T00:18:51.300Z,11.10
2018-08-11T00:21:19.193Z,11.20
2018-08-11T00:23:46.824Z,11.20
2018-08-11T00:26:14.767Z,11.20
2018-08-11T00:28:43.160Z,11.30
2018-08-11T00:31:11.427Z,11.40
2018-08-11T00:33:39.857Z,11.40
2018-08-11T00:36:07.750Z,11.50
2018-08-11T00:38:35.797Z,11.60
2018-08-11T00:41:03.745Z,11.60
2018-08-11T00:43:31.887Z,11.70
2018-08-11T00:46:00.473Z,11.80
2018-08-11T00:48:29.202Z,11.80
2018-08-11T00:50:57.245Z,11.90
2018-08-11T00:53:25.154Z,11.90
2018-08-11T00:55:53.140Z,12.00
2018-08-11T00:58:20.987Z,12.00
2018-08-11T01:00:49.173Z,12.00
2018-08-11T01:03:17.680Z,12.00
2018-08-11T01:05:45.869Z,12.00
2018-08-11T01:08:14.036Z,12.00
2018-08-11T01:10:42.153Z,12.00
2018-08-11T01:13:10.189Z,12.00
2018-08-11T01:15:38.123Z,12.00
2018-08-11T01:18:06.077Z,12.10
2018-08-11T01:20:34.380Z,12.20
2018-08-11T01:23:02.649Z,12.20
2018-08-11T01:25:30.415Z,12.20
2018-08-11T01:27:59.122Z,12.30
2018-08-11T01:30:27.220Z,12.30
2018-08-11T01:32:54.963Z,12.30
2018-08-11T01:35:23.024Z,12.30
2018-08-11T01:37:51.276Z,12.30
2018-08-11T01:40:19.667Z,12.30
2018-08-11T01:42:48.560Z,12.40
2018-08-11T01:45:16.961Z,12.40
2018-08-11T01:47:44.933Z,12.40
2018-08-11T01:50:14.239Z,12.50
2018-08-11T01:52:44.294Z,12.60
2018-08-11T01:55:14.511Z,12.60
2018-08-11T01:57:43.064Z,12.70
2018-08-11T02:00:12.647Z,12.70
2018-08-11T02:02:40.813Z,12.60
2018-08-11T02:05:09.770Z,12.60
2018-08-11T02:07:39.069Z,12.60
2018-08-11T02:10:08.927Z,12.50
2018-08-11T02:12:36.868Z,12.50
2018-08-11T02:15:07.045Z,12.50
2018-08-11T02:17:34.739Z,12.50
2018-08-11T02:20:02.955Z,12.50
2018-08-11T02:22:31.124Z,12.50
2018-08-11T02:24:59.425Z,12.40
2018-08-11T02:27:27.430Z,12.30
2018-08-11T02:29:55.040Z,12.30
2018-08-11T02:32:23.160Z,12.20
2018-08-11T02:34:51.393Z,12.10
2018-08-11T02:37:19.456Z,12.00
2018-08-11T02:39:47.362Z,11.90
2018-08-11T02:42:15.289Z,11.80
2018-08-11T02:44:43.226Z,11.70
2018-08-11T02:47:11.928Z,11.70
2018-08-11T02:49:40.496Z,11.60
2018-08-11T02:52:08.588Z,11.50
2018-08-11T02:54:36.752Z,11.60
2018-08-11T02:57:05.048Z,11.60
2018-08-11T02:59:32.739Z,11.60
2018-08-11T03:02:01.302Z,11.70
2018-08-11T03:04:29.935Z,11.70
2018-08-11T03:06:58.356Z,11.70
2018-08-11T03:09:26.321Z,11.70
2018-08-11T03:11:54.302Z,11.80
2018-08-11T03:14:22.399Z,11.80
2018-08-11T03:16:50.325Z,11.80
2018-08-11T03:19:18.427Z,11.80
2018-08-11T03:21:46.356Z,11.80
2018-08-11T03:24:14.239Z,11.80
2018-08-11T03:26:42.273Z,11.80
2018-08-11T03:29:10.470Z,11.70
2018-08-11T03:31:38.643Z,11.60
2018-08-11T03:34:06.435Z,11.60
2018-08-11T03:36:35.863Z,11.60
2018-08-11T03:39:05.842Z,11.60
2018-08-11T03:41:34.892Z,11.60
2018-08-11T03:44:02.989Z,11.50
2018-08-11T03:46:30.981Z,11.50
2018-08-11T03:48:58.707Z,11.50
2018-08-11T03:51:26.797Z,11.50
2018-08-11T03:53:54.571Z,11.50
2018-08-11T03:56:22.423Z,11.60
2018-08-11T03:58:50.615Z,11.70
2018-08-11T04:01:18.571Z,11.80
2018-08-11T04:03:46.528Z,11.80
2018-08-11T04:06:14.387Z,11.90
2018-08-11T04:08:42.456Z,11.90
2018-08-11T04:11:10.420Z,11.90
2018-08-11T04:13:38.416Z,11.90
2018-08-11T04:16:06.447Z,12.00
2018-08-11T04:18:34.263Z,12.00
2018-08-11T04:21:02.416Z,12.10
2018-08-11T04:23:30.417Z,12.10
2018-08-11T04:25:58.539Z,12.10
2018-08-11T04:28:27.412Z,12.10
2018-08-11T04:30:55.919Z,12.20
2018-08-11T04:33:24.343Z,12.20
2018-08-11T04:35:52.224Z,12.30
2018-08-11T04:38:20.051Z,12.30
2018-08-11T04:40:47.925Z,12.30
2018-08-11T04:43:15.914Z,12.40
2018-08-11T04:45:43.838Z,12.40
2018-08-11T04:48:11.618Z,12.50
2018-08-11T04:50:39.440Z,12.50
2018-08-11T04:53:07.622Z,12.60
2018-08-11T04:55:35.513Z,12.60
2018-08-11T04:58:03.577Z,12.70
2018-08-11T05:00:32.161Z,12.70
2018-08-11T05:03:00.700Z,12.80
2018-08-11T05:05:28.894Z,12.90
2018-08-11T05:07:57.303Z,13.00
2018-08-11T05:10:25.386Z,13.00
2018-08-11T05:12:53.654Z,13.00
2018-08-11T05:15:21.902Z,13.10
2018-08-11T05:17:50.356Z,13.20
2018-08-11T05:20:18.695Z,13.30
2018-08-11T05:22:46.540Z,13.30
2018-08-11T05:25:14.984Z,13.40
2018-08-11T05:27:42.963Z,13.50
2018-08-11T05:30:11.800Z,13.60
2018-08-11T05:32:40.079Z,13.70
2018-08-11T05:35:08.061Z,13.80
2018-08-11T05:37:36.163Z,14.00
2018-08-11T05:40:04.372Z,14.00
2018-08-11T05:42:32.405Z,14.10
2018-08-11T05:45:00.526Z,14.20
2018-08-11T05:47:28.488Z,14.40
2018-08-11T05:49:56.594Z,14.50
2018-08-11T05:52:24.432Z,14.60
2018-08-11T05:54:52.761Z,14.70
2018-08-11T05:57:20.878Z,14.90
2018-08-11T05:59:49.022Z,15.00
2018-08-11T06:02:17.187Z,15.20
2018-08-11T06:04:45.182Z,15.40
2018-08-11T06:07:13.284Z,15.60
2018-08-11T06:09:41.834Z,15.80
2018-08-11T06:12:09.992Z,16.00
2018-08-11T06:14:37.939Z,16.20
2018-08-11T06:17:06.055Z,16.40
2018-08-11T06:19:34.572Z,16.50
2018-08-11T06:22:02.746Z,16.70
2018-08-11T06:24:30.731Z,16.90
2018-08-11T06:26:59.367Z,17.00
2018-08-11T06:29:27.804Z,17.20
2018-08-11T06:31:55.945Z,17.40
2018-08-11T06:34:23.897Z,17.60
2018-08-11T06:36:51.741Z,17.70
2018-08-11T06:39:19.988Z,17.80
2018-08-11T06:41:48.292Z,17.90
2018-08-11T06:44:16.428Z,18.10
2018-08-11T06:46:44.697Z,18.20
2018-08-11T06:49:12.972Z,18.40
2018-08-11T06:51:41.322Z,18.60
2018-08-11T06:54:09.627Z,18.80
2018-08-11T06:56:38.088Z,19.30
2018-08-11T06:59:06.280Z,19.90
2018-08-11T07:01:36.120Z,21.10
2018-08-11T07:04:04.118Z,22.20
2018-08-11T07:06:33.277Z,22.90
2018-08-11T07:09:02.025Z,23.70
2018-08-11T07:11:30.546Z,24.10
2018-08-11T07:13:58.603Z,24.80
2018-08-11T07:16:26.437Z,25.40
2018-08-11T07:18:54.985Z,25.70
2018-08-11T07:21:23.089Z,25.60
2018-08-11T07:23:50.997Z,25.30
2018-08-11T07:26:20.095Z,24.80
2018-08-11T07:28:48.203Z,24.60
2018-08-11T07:31:16.878Z,24.30
2018-08-11T07:33:45.144Z,24.20
2018-08-11T07:36:13.392Z,23.90
2018-08-11T07:38:41.339Z,23.70
2018-08-11T07:41:09.336Z,23.60
2018-08-11T07:43:38.024Z,23.40
2018-08-11T07:46:06.706Z,23.30
2018-08-11T07:48:34.957Z,23.10
2018-08-11T07:51:03.133Z,23.10
2018-08-11T07:53:31.102Z,23.10
2018-08-11T07:55:59.420Z,23.30
2018-08-11T07:58:27.647Z,23.30
2018-08-11T08:00:56.202Z,23.30
2018-08-11T08:03:25.573Z,23.30
2018-08-11T08:05:54.982Z,23.30
2018-08-11T08:08:24.890Z,23.30
2018-08-11T08:10:53.843Z,23.40
2018-08-11T08:13:21.992Z,23.20
2018-08-11T08:15:50.071Z,22.90
2018-08-11T08:18:20.094Z,22.50
2018-08-11T08:20:48.178Z,22.10
2018-08-11T08:23:16.037Z,21.90
2018-08-11T08:25:44.609Z,21.80
2018-08-11T08:28:13.873Z,21.80
2018-08-11T08:30:42.833Z,21.80
2018-08-11T08:33:11.595Z,21.60
2018-08-11T08:35:40.045Z,21.30
2018-08-11T08:38:11.114Z,21.20
2018-08-11T08:40:39.756Z,21.10
2018-08-11T08:43:07.821Z,21.20
2018-08-11T08:45:35.971Z,21.30
2018-08-11T08:48:04.348Z,21.40
2018-08-11T08:50:32.460Z,21.50
2018-08-11T08:53:00.553Z,21.60
2018-08-11T08:55:28.684Z,21.90
2018-08-11T08:57:56.706Z,22.10
2018-08-11T09:00:25.691Z,22.00
2018-08-11T09:02:54.984Z,21.80
2018-08-11T09:05:23.182Z,21.60
2018-08-11T09:07:51.246Z,21.60
2018-08-11T09:10:19.546Z,21.80
2018-08-11T09:12:47.916Z,21.70
2018-08-11T09:15:16.033Z,21.60
2018-08-11T09:17:44.136Z,21.70
2018-08-11T09:20:12.006Z,21.70
2018-08-11T09:22:40.104Z,21.90
2018-08-11T09:25:08.146Z,22.20
2018-08-11T09:27:36.472Z,22.60
2018-08-11T09:30:05.375Z,23.00
2018-08-11T09:32:33.175Z,22.90
2018-08-11T09:35:00.998Z,22.60
2018-08-11T09:37:29.578Z,22.10
2018-08-11T09:39:57.979Z,21.90
2018-08-11T09:42:26.908Z,22.10
2018-08-11T09:44:55.010Z,22.40
2018-08-11T09:47:23.040Z,22.90
2018-08-11T09:49:50.963Z,23.20
2018-08-11T09:52:19.482Z,23.60
2018-08-11T09:54:47.415Z,23.50
2018-08-11T09:57:15.624Z,23.10
2018-08-11T09:59:44.713Z,22.90
2018-08-11T10:02:21.413Z,22.70
2018-08-11T10:04:49.884Z,22.40
2018-08-11T10:07:18.141Z,21.70
2018-08-11T10:09:46.745Z,21.40
2018-08-11T10:12:15.120Z,21.40
2018-08-11T10:14:44.535Z,21.30
2018-08-11T10:17:12.881Z,21.10
2018-08-11T10:19:41.080Z,21.20
2018-08-11T10:22:09.782Z,21.20
2018-08-11T10:24:38.657Z,21.00
2018-08-11T10:27:07.293Z,21.00
2018-08-11T10:29:35.663Z,21.40
2018-08-11T10:32:03.845Z,21.80
2018-08-11T10:34:32.219Z,22.30
2018-08-11T10:37:00.223Z,22.70
2018-08-11T10:39:28.630Z,23.10
2018-08-11T10:41:56.621Z,23.30
2018-08-11T10:44:25.708Z,23.20
2018-08-11T10:46:54.411Z,22.80
2018-08-11T10:49:23.147Z,22.40
2018-08-11T10:51:51.349Z,22.30
2018-08-11T10:54:19.453Z,22.10
2018-08-11T10:56:47.620Z,22.10
2018-08-11T10:59:15.948Z,22.40
2018-08-11T11:01:44.633Z,22.70
2018-08-11T11:04:13.009Z,23.10
2018-08-11T11:06:42.232Z,23.40
2018-08-11T11:09:11.259Z,23.40
2018-08-11T11:11:40.026Z,23.40
2018-08-11T11:14:09.427Z,23.60
2018-08-11T11:16:38.749Z,23.80
2018-08-11T11:19:08.574Z,23.80
2018-08-11T11:21:38.695Z,23.60
2018-08-11T11:24:06.759Z,23.20
2018-08-11T11:26:36.404Z,23.10
2018-08-11T11:29:05.179Z,23.20
2018-08-11T11:31:35.952Z,23.20
2018-08-11T11:34:04.736Z,23.30
2018-08-11T11:36:34.332Z,23.30
2018-08-11T11:39:03.009Z,23.30
2018-08-11T11:41:31.334Z,23.30
2018-08-11T11:43:59.938Z,23.40
2018-08-11T11:46:28.223Z,23.30
2018-08-11T11:48:56.085Z,23.20
2018-08-11T11:51:24.280Z,23.30
2018-08-11T11:53:53.221Z,23.30
2018-08-11T11:56:21.378Z,23.10
2018-08-11T11:58:49.423Z,23.00
2018-08-11T12:01:17.459Z,23.20
2018-08-11T12:03:45.865Z,23.30
2018-08-11T12:06:13.784Z,23.40
2018-08-11T12:08:41.717Z,23.40
2018-08-11T12:11:09.719Z,23.40
2018-08-11T12:13:38.311Z,23.30
2018-08-11T12:16:06.332Z,23.30
2018-08-11T12:18:34.470Z,23.20
2018-08-11T12:21:02.750Z,23.20
2018-08-11T12:23:30.965Z,23.20
2018-08-11T12:25:59.413Z,23.30
2018-08-11T12:28:28.854Z,23.30
2018-08-11T12:30:57.297Z,23.40
2018-08-11T12:33:25.384Z,23.50
2018-08-11T12:35:53.631Z,23.70
2018-08-11T12:38:22.159Z,24.00
2018-08-11T12:40:50.378Z,24.00
2018-08-11T12:43:19.229Z,24.20
2018-08-11T12:45:47.786Z,24.30
2018-08-11T12:48:15.787Z,24.30
2018-08-11T12:50:44.109Z,24.30
2018-08-11T12:53:12.350Z,24.30
2018-08-11T12:55:40.570Z,24.30
2018-08-11T12:58:08.484Z,24.10
2018-08-11T13:00:37.414Z,24.00
2018-08-11T13:03:05.161Z,23.90
2018-08-11T13:05:33.353Z,24.00
2018-08-11T13:08:02.141Z,24.00
2018-08-11T13:10:30.701Z,24.20
2018-08-11T13:13:00.063Z,24.30
2018-08-11T13:15:28.451Z,24.10
2018-08-11T13:17:56.199Z,24.00
2018-08-11T13:20:26.125Z,24.10
2018-08-11T13:22:54.887Z,24.10
2018-08-11T13:25:23.451Z,24.10
2018-08-11T13:27:51.396Z,23.90
2018-08-11T13:30:19.479Z,23.70
2018-08-11T13:32:47.866Z,23.50
2018-08-11T13:35:17.125Z,23.20
2018-08-11T13:37:45.340Z,23.00
2018-08-11T13:40:13.465Z,23.00
2018-08-11T13:42:43.025Z,23.20
2018-08-11T13:45:11.297Z,23.50
2018-08-11T13:47:39.033Z,23.60
2018-08-11T13:50:07.410Z,23.70
2018-08-11T13:52:35.621Z,23.70
2018-08-11T13:55:04.253Z,23.80
2018-08-11T13:57:32.835Z,23.80
2018-08-11T14:00:01.063Z,23.90
2018-08-11T14:02:29.923Z,24.10
2018-08-11T14:04:57.836Z,24.10
2018-08-11T14:07:26.100Z,24.10
2018-08-11T14:09:55.228Z,24.10
2018-08-11T14:12:23.400Z,24.10
2018-08-11T14:14:51.548Z,24.00
2018-08-11T14:17:19.870Z,23.90
2018-08-11T14:19:48.020Z,23.80
2018-08-11T14:22:16.439Z,23.90
2018-08-11T14:24:44.572Z,24.00
2018-08-11T14:27:12.772Z,24.10
2018-08-11T14:29:40.928Z,23.90
2018-08-11T14:32:10.238Z,23.70
2018-08-11T14:34:39.093Z,23.50
2018-08-11T14:37:06.868Z,23.50
2018-08-11T14:39:35.297Z,23.50
2018-08-11T14:42:03.397Z,23.60
2018-08-11T14:44:31.789Z,23.70
2018-08-11T14:47:00.016Z,23.70
2018-08-11T14:49:28.403Z,23.70
2018-08-11T14:51:56.146Z,23.50
2018-08-11T14:54:24.402Z,23.50
2018-08-11T14:56:52.597Z,23.40
2018-08-11T14:59:21.100Z,23.40
2018-08-11T15:01:49.114Z,23.60
2018-08-11T15:04:17.356Z,23.60
2018-08-11T15:06:45.636Z,23.70
2018-08-11T15:09:13.789Z,23.80
2018-08-11T15:11:41.839Z,23.80
2018-08-11T15:14:10.629Z,23.80
2018-08-11T15:16:38.667Z,23.70
2018-08-11T15:19:07.391Z,23.60
2018-08-11T15:21:36.599Z,23.60
2018-08-11T15:24:04.737Z,23.70
2018-08-11T15:26:32.859Z,23.80
2018-08-11T15:29:02.099Z,23.80
2018-08-11T15:31:30.267Z,23.70
2018-08-11T15:33:58.393Z,23.50
2018-08-11T15:36:26.672Z,23.40
2018-08-11T15:38:54.806Z,23.30
2018-08-11T15:41:22.814Z,23.10
2018-08-11T15:43:51.375Z,23.00
2018-08-11T15:46:19.742Z,22.90
2018-08-11T15:48:48.445Z,22.70
2018-08-11T15:51:16.302Z,22.70
2018-08-11T15:53:44.634Z,22.70
2018-08-11T15:56:12.856Z,22.80
2018-08-11T15:58:41.122Z,22.80
2018-08-11T16:01:09.114Z,22.80
2018-08-11T16:03:37.084Z,22.80
2018-08-11T16:06:05.444Z,22.70
2018-08-11T16:08:33.477Z,22.70
2018-08-11T16:11:01.853Z,22.70
2018-08-11T16:13:30.870Z,22.50
2018-08-11T16:15:58.765Z,22.50
2018-08-11T16:18:27.087Z,22.60
2018-08-11T16:20:55.024Z,22.50
2018-08-11T16:23:23.405Z,22.40
2018-08-11T16:25:51.546Z,22.40
2018-08-11T16:28:19.794Z,22.40
2018-08-11T16:30:47.814Z,22.40
2018-08-11T16:33:15.978Z,22.30
2018-08-11T16:35:44.340Z,22.10
2018-08-11T16:38:12.598Z,22.00
2018-08-11T16:40:40.697Z,21.90
2018-08-11T16:43:08.677Z,21.70
2018-08-11T16:45:36.915Z,21.70
2018-08-11T16:48:04.714Z,21.70
2018-08-11T16:50:33.083Z,21.70
2018-08-11T16:53:01.214Z,21.80
2018-08-11T16:55:29.224Z,21.80
2018-08-11T16:57:57.484Z,21.80
2018-08-11T17:00:25.387Z,21.90
2018-08-11T17:02:53.679Z,21.90
2018-08-11T17:05:21.647Z,21.90
2018-08-11T17:07:49.623Z,21.60
2018-08-11T17:10:17.594Z,21.40
2018-08-11T17:12:46.018Z,21.20
2018-08-11T17:15:17.668Z,21.10
2018-08-11T17:17:45.771Z,21.00
2018-08-11T17:20:13.633Z,21.00
2018-08-11T17:22:42.218Z,20.90
2018-08-11T17:25:10.327Z,20.80
2018-08-11T17:27:38.712Z,20.80
2018-08-11T17:30:07.195Z,20.70
2018-08-11T17:32:35.073Z,20.70
2018-08-11T17:35:03.512Z,20.60
2018-08-11T17:37:31.738Z,20.50
2018-08-11T17:39:59.844Z,20.40
2018-08-11T17:42:28.888Z,20.30
2018-08-11T17:44:57.070Z,20.30
2018-08-11T17:47:25.039Z,20.20
2018-08-11T17:49:53.348Z,20.20
2018-08-11T17:52:21.917Z,20.10
2018-08-11T17:54:50.251Z,20.00
2018-08-11T17:57:18.205Z,20.00
2018-08-11T17:59:46.304Z,19.90
2018-08-11T18:02:15.139Z,19.80
2018-08-11T18:04:43.427Z,19.70
2018-08-11T18:07:11.572Z,19.70
2018-08-11T18:09:39.889Z,19.50
2018-08-11T18:12:08.029Z,19.50
2018-08-11T18:14:37.392Z,19.40
2018-08-11T18:17:05.547Z,19.20
2018-08-11T18:19:33.857Z,19.10
2018-08-11T18:22:02.012Z,19.00
2018-08-11T18:24:30.406Z,18.80
2018-08-11T18:26:58.598Z,18.60
2018-08-11T18:29:26.665Z,18.50
2018-08-11T18:31:54.866Z,18.40
2018-08-11T18:34:22.723Z,18.20
2018-08-11T18:36:51.945Z,18.10
2018-08-11T18:39:20.715Z,18.00
2018-08-11T18:41:48.553Z,17.80
2018-08-11T18:44:16.645Z,17.60
2018-08-11T18:46:44.576Z,17.40
2018-08-11T18:49:12.806Z,17.30
2018-08-11T18:51:41.021Z,17.10
2018-08-11T18:54:09.100Z,17.00
2018-08-11T18:56:38.396Z,16.80
2018-08-11T18:59:07.226Z,16.60
2018-08-11T19:01:36.885Z,16.40
2018-08-11T19:04:07.528Z,16.30
2018-08-11T19:06:38.239Z,16.10
2018-08-11T19:09:11.109Z,16.00
2018-08-11T19:11:39.572Z,15.80
2018-08-11T19:14:08.925Z,15.70
2018-08-11T19:16:40.402Z,15.50
2018-08-11T19:19:11.390Z,15.40
2018-08-11T19:21:40.103Z,15.20
2018-08-11T19:24:08.544Z,15.00
2018-08-11T19:26:37.918Z,14.90
2018-08-11T19:29:08.515Z,14.80
2018-08-11T19:31:38.010Z,14.70
2018-08-11T19:34:06.454Z,14.60
2018-08-11T19:36:35.705Z,14.50
2018-08-11T19:39:06.961Z,14.40
2018-08-11T19:41:36.499Z,14.20
2018-08-11T19:44:05.009Z,14.10
2018-08-11T19:46:33.792Z,14.00
2018-08-11T19:49:02.501Z,14.00
2018-08-11T19:51:31.853Z,13.90
2018-08-11T19:54:01.817Z,13.80
2018-08-11T19:56:31.164Z,13.70
2018-08-11T19:59:00.783Z,13.50
2018-08-11T20:01:30.373Z,13.40
2018-08-11T20:03:59.364Z,13.30
2018-08-11T20:06:27.851Z,13.20
2018-08-11T20:08:56.089Z,13.20
2018-08-11T20:11:24.633Z,13.10
2018-08-11T20:13:53.944Z,13.00
2018-08-11T20:16:22.227Z,12.90
2018-08-11T20:18:51.206Z,12.90
2018-08-11T20:21:21.931Z,12.80
2018-08-11T20:23:51.200Z,12.80
2018-08-11T20:26:22.838Z,12.70
2018-08-11T20:28:51.832Z,12.60
2018-08-11T20:31:21.213Z,12.60
2018-08-11T20:33:52.021Z,12.50
2018-08-11T20:36:21.068Z,12.40
2018-08-11T20:38:51.636Z,12.30
2018-08-11T20:41:21.324Z,12.20
2018-08-11T20:43:50.282Z,12.20
2018-08-11T20:46:19.984Z,12.00
2018-08-11T20:48:48.314Z,11.90
2018-08-11T20:51:16.851Z,11.80
2018-08-11T20:53:45.403Z,11.80
2018-08-11T20:56:13.537Z,11.70
2018-08-11T20:58:42.515Z,11.70
2018-08-11T21:01:10.732Z,11.60
2018-08-11T21:03:38.939Z,11.60
2018-08-11T21:06:07.586Z,11.60
2018-08-11T21:08:38.659Z,11.50
2018-08-11T21:11:07.388Z,11.40
2018-08-11T21:13:36.643Z,11.30
2018-08-11T21:16:05.425Z,11.20
2018-08-11T21:18:33.373Z,11.10
2018-08-11T21:21:01.493Z,11.00
2018-08-11T21:23:29.687Z,10.90
2018-08-11T21:25:58.192Z,10.90
2018-08-11T21:28:26.206Z,10.90
2018-08-11T21:30:54.446Z,10.90
2018-08-11T21:33:22.987Z,10.90
2018-08-11T21:35:51.246Z,10.80
2018-08-11T21:38:19.570Z,10.70
2018-08-11T21:40:47.618Z,10.50
2018-08-11T21:43:15.603Z,10.50
2018-08-11T21:45:43.707Z,10.40
2018-08-11T21:48:11.596Z,10.40
2018-08-11T21:50:39.460Z,10.30
2018-08-11T21:53:07.984Z,10.30
2018-08-11T21:55:35.921Z,10.30
2018-08-11T21:58:04.277Z,10.20
2018-08-11T22:00:33.931Z,10.10
2018-08-11T22:03:02.158Z,10.00
2018-08-11T22:05:30.238Z,10.00
2018-08-11T22:07:59.858Z,9.80
2018-08-11T22:10:29.330Z,9.70
2018-08-11T22:12:58.121Z,9.70
2018-08-11T22:15:26.601Z,9.70
2018-08-11T22:17:54.587Z,9.60
2018-08-11T22:20:22.574Z,9.60
2018-08-11T22:22:50.658Z,9.50
2018-08-11T22:25:19.047Z,9.50
2018-08-11T22:27:47.231Z,9.50
2018-08-11T22:30:15.159Z,9.50
2018-08-11T22:32:43.267Z,9.50
2018-08-11T22:35:12.123Z,9.50
2018-08-11T22:37:40.459Z,9.50
2018-08-11T22:40:08.489Z,9.40
2018-08-11T22:42:38.102Z,9.40
2018-08-11T22:45:08.824Z,9.40
2018-08-11T22:47:37.926Z,9.40
2018-08-11T22:50:08.060Z,9.40
2018-08-11T22:52:36.600Z,9.40
2018-08-11T22:55:05.366Z,9.30
2018-08-11T22:57:33.350Z,9.30
2018-08-11T23:00:01.662Z,9.20
2018-08-11T23:02:30.880Z,9.10
2018-08-11T23:04:58.845Z,9.10
2018-08-11T23:07:26.962Z,9.00
2018-08-11T23:09:55.162Z,8.90
2018-08-11T23:12:23.179Z,8.90
2018-08-11T23:14:51.403Z,8.90
2018-08-11T23:17:19.157Z,8.90
2018-08-11T23:19:47.315Z,8.90
2018-08-11T23:22:15.556Z,8.80
2018-08-11T23:24:43.553Z,8.80
2018-08-11T23:27:11.289Z,8.80
2018-08-11T23:29:39.349Z,8.70
2018-08-11T23:32:07.232Z,8.70
2018-08-11T23:34:35.535Z,8.70
2018-08-11T23:37:03.853Z,8.70
2018-08-11T23:39:32.299Z,8.50
2018-08-11T23:42:00.384Z,8.50
2018-08-11T23:44:28.686Z,8.50
2018-08-11T23:46:57.157Z,8.50
2018-08-11T23:49:25.341Z,8.50
2018-08-11T23:51:53.423Z,8.60
2018-08-11T23:54:22.480Z,8.50
2018-08-11T23:56:50.504Z,8.50
2018-08-11T23:59:18.649Z,8.40
